Time;durP1;ratioP1;P1;durP2;ratioP2;P2;SDS_P1;SDS_P2;PMS_P1;PMS_P2;Temp;Humidity;BMP_temperature;BMP_pressure;BME280_temperature;BME280_humidity;BME280_pressure;Samples;Min_cycle;Max_cycle;Signal;HPM_P1;HPM_P2
2021/12/09 00:00:23;;;;;;;29.47;14.23;;;;;;;;;;5070485;28;20290;-68
2021/12/09 00:02:49;;;;;;;24.20;14.50;;;;;;;;;;5086391;28;20317;-68
2021/12/09 00:05:16;;;;;;;32.17;15.77;;;;;;;;;;5089115;28;20321;-68
2021/12/09 00:07:43;;;;;;;29.30;15.03;;;;;;;;;;5089265;28;20282;-68
2021/12/09 00:10:10;;;;;;;31.10;14.83;;;;;;;;;;5070333;28;20286;-68
2021/12/09 00:12:36;;;;;;;24.93;14.90;;;;;;;;;;5088844;28;20388;-68
2021/12/09 00:15:03;;;;;;;32.57;16.27;;;;;;;;;;5070026;28;20291;-68
2021/12/09 00:17:29;;;;;;;28.77;15.07;;;;;;;;;;5088839;28;20301;-68
2021/12/09 00:19:55;;;;;;;30.33;15.63;;;;;;;;;;5066940;28;20362;-68
2021/12/09 00:22:21;;;;;;;27.93;16.73;;;;;;;;;;5059512;28;20410;-68
2021/12/09 00:24:47;;;;;;;30.57;15.13;;;;;;;;;;5054642;28;20398;-68
2021/12/09 00:27:13;;;;;;;33.90;16.23;;;;;;;;;;5070572;28;20283;-68
2021/12/09 00:29:39;;;;;;;29.13;16.40;;;;;;;;;;5070967;28;20056;-68
2021/12/09 00:32:05;;;;;;;43.97;17.93;;;;;;;;;;5070545;28;20331;-68
2021/12/09 00:34:34;;;;;;;35.77;15.67;;;;;;;;;;5070373;28;20865;-69
2021/12/09 00:37:15;;;;;;;25.00;16.03;;;;;;;;;;5070922;28;20289;-69
2021/12/09 00:39:41;;;;;;;41.43;17.80;;;;;;;;;;5068499;28;20361;-69
2021/12/09 00:42:08;;;;;;;35.23;18.40;;;;;;;;;;5069781;28;20320;-68
2021/12/09 00:44:34;;;;;;;34.30;16.60;;;;;;;;;;5069776;28;20297;-68
2021/12/09 00:47:01;;;;;;;30.80;16.50;;;;;;;;;;5088610;28;20282;-68
2021/12/09 00:49:30;;;;;;;30.17;17.10;;;;;;;;;;5073454;28;20044;-68
2021/12/09 00:51:56;;;;;;;33.33;17.53;;;;;;;;;;5080548;28;20316;-68
2021/12/09 00:54:22;;;;;;;33.27;18.40;;;;;;;;;;5081858;28;20298;-68
2021/12/09 00:56:48;;;;;;;29.10;17.77;;;;;;;;;;5088525;28;20278;-69
2021/12/09 00:59:14;;;;;;;37.67;17.30;;;;;;;;;;5068999;28;20375;-68
2021/12/09 01:01:40;;;;;;;34.07;18.00;;;;;;;;;;5086853;28;20313;-69
2021/12/09 01:04:06;;;;;;;39.70;19.87;;;;;;;;;;5081608;28;20808;-68
2021/12/09 01:06:32;;;;;;;33.60;18.33;;;;;;;;;;5054110;28;20044;-68
2021/12/09 01:08:58;;;;;;;35.53;18.37;;;;;;;;;;5088883;28;20289;-68
2021/12/09 01:11:25;;;;;;;39.07;20.17;;;;;;;;;;5069876;28;20293;-67
2021/12/09 01:13:51;;;;;;;34.20;19.23;;;;;;;;;;5070361;28;20294;-68
2021/12/09 01:16:16;;;;;;;33.97;18.10;;;;;;;;;;5084499;28;20347;-68
2021/12/09 01:18:43;;;;;;;33.13;17.77;;;;;;;;;;5088550;28;20674;-68
2021/12/09 01:21:10;;;;;;;35.37;18.37;;;;;;;;;;5088455;28;20039;-68
2021/12/09 01:23:36;;;;;;;35.10;20.00;;;;;;;;;;5087899;28;20282;-68
2021/12/09 01:26:05;;;;;;;40.23;20.50;;;;;;;;;;5071069;28;20382;-68
2021/12/09 01:28:39;;;;;;;31.53;18.33;;;;;;;;;;5054286;28;20306;-68
2021/12/09 01:31:06;;;;;;;;;;;;;;;;;;5088480;28;20322;-68
2021/12/09 01:33:33;;;;;;;36.50;17.40;;;;;;;;;;5087937;28;19965;-68
2021/12/09 01:35:59;;;;;;;39.17;18.77;;;;;;;;;;5073097;28;20846;-68
2021/12/09 01:38:29;;;;;;;37.50;20.23;;;;;;;;;;5071726;28;20279;-67
2021/12/09 01:40:56;;;;;;;29.20;17.87;;;;;;;;;;5054037;28;20301;-67
2021/12/09 01:43:22;;;;;;;35.63;19.50;;;;;;;;;;5071955;28;20600;-68
2021/12/09 01:45:49;;;;;;;35.57;19.67;;;;;;;;;;5069763;28;20286;-68
2021/12/09 01:48:16;;;;;;;41.87;20.90;;;;;;;;;;5074968;28;20629;-68
2021/12/09 01:50:42;;;;;;;45.53;20.63;;;;;;;;;;5069951;28;20653;-68
2021/12/09 01:53:08;;;;;;;40.73;20.40;;;;;;;;;;5071520;28;20800;-67
2021/12/09 01:55:34;;;;;;;41.13;20.80;;;;;;;;;;5070651;28;20295;-68
2021/12/09 01:58:01;;;;;;;41.80;20.60;;;;;;;;;;5073659;28;20286;-68
2021/12/09 02:00:31;;;;;;;52.00;23.07;;;;;;;;;;5073139;28;20861;-68
2021/12/09 02:02:57;;;;;;;41.70;20.30;;;;;;;;;;5068443;28;20368;-68
2021/12/09 02:05:25;;;;;;;34.30;20.37;;;;;;;;;;5091768;28;20332;-67
2021/12/09 02:07:51;;;;;;;38.30;21.03;;;;;;;;;;5040343;28;20340;-68
2021/12/09 02:10:19;;;;;;;46.97;22.10;;;;;;;;;;5055273;28;20295;-68
2021/12/09 02:12:46;;;;;;;35.97;19.40;;;;;;;;;;5055224;28;20301;-68
2021/12/09 02:15:12;;;;;;;40.07;20.57;;;;;;;;;;5076211;28;20350;-68
2021/12/09 02:17:39;;;;;;;41.80;19.97;;;;;;;;;;5072626;28;20682;-67
2021/12/09 02:20:07;;;;;;;42.50;21.13;;;;;;;;;;5071852;28;20298;-67
2021/12/09 02:22:33;;;;;;;48.47;21.80;;;;;;;;;;5090163;28;20368;-68
2021/12/09 02:24:59;;;;;;;50.87;24.60;;;;;;;;;;5091170;28;20392;-67
2021/12/09 02:27:26;;;;;;;46.27;22.53;;;;;;;;;;5070001;28;20783;-68
2021/12/09 02:29:53;;;;;;;43.30;23.50;;;;;;;;;;5078022;28;20411;-68
2021/12/09 02:32:19;;;;;;;47.67;24.20;;;;;;;;;;5071953;28;20290;-68
2021/12/09 02:34:45;;;;;;;44.17;23.40;;;;;;;;;;5062752;28;20322;-68
2021/12/09 02:37:13;;;;;;;45.13;23.97;;;;;;;;;;5072199;28;20317;-67
2021/12/09 02:39:39;;;;;;;45.90;24.00;;;;;;;;;;5072919;28;20048;-68
2021/12/09 02:42:06;;;;;;;46.10;23.43;;;;;;;;;;5084550;28;20302;-68
2021/12/09 02:44:32;;;;;;;40.40;23.37;;;;;;;;;;5072338;28;20305;-68
2021/12/09 02:46:58;;;;;;;50.97;24.13;;;;;;;;;;5071919;28;20286;-68
2021/12/09 02:49:26;;;;;;;49.20;23.37;;;;;;;;;;5070804;28;20047;-69
2021/12/09 02:51:53;;;;;;;40.50;21.20;;;;;;;;;;5090239;28;20301;-68
2021/12/09 02:54:20;;;;;;;55.43;24.77;;;;;;;;;;5090518;28;20281;-67
2021/12/09 02:56:47;;;;;;;47.70;25.07;;;;;;;;;;5090489;28;20286;-67
2021/12/09 02:59:13;;;;;;;54.43;25.77;;;;;;;;;;5072144;28;20296;-67
2021/12/09 03:01:49;;;;;;;63.27;24.63;;;;;;;;;;5089719;28;20298;-68
2021/12/09 03:04:15;;;;;;;46.27;22.70;;;;;;;;;;5068861;28;20048;-67
2021/12/09 03:06:42;;;;;;;40.50;23.60;;;;;;;;;;5068628;28;20294;-68
2021/12/09 03:09:10;;;;;;;45.63;23.50;;;;;;;;;;5074545;28;20422;-68
2021/12/09 03:11:36;;;;;;;60.77;27.93;;;;;;;;;;5071478;28;20298;-68
2021/12/09 03:14:03;;;;;;;56.33;26.07;;;;;;;;;;5071862;28;20431;-67
2021/12/09 03:16:29;;;;;;;55.13;27.73;;;;;;;;;;5089142;28;20693;-67
2021/12/09 03:18:57;;;;;;;64.17;30.07;;;;;;;;;;5090405;28;20286;-67
2021/12/09 03:21:28;;;;;;;60.87;28.00;;;;;;;;;;5071474;28;20394;-67
2021/12/09 03:23:54;;;;;;;55.13;27.77;;;;;;;;;;5071619;28;20862;-67
2021/12/09 03:26:25;;;;;;;61.13;28.60;;;;;;;;;;5087608;28;20883;-67
2021/12/09 03:28:52;;;;;;;58.87;26.20;;;;;;;;;;5089772;28;20290;-67
2021/12/09 03:31:18;;;;;;;61.10;30.83;;;;;;;;;;5078668;28;20313;-67
2021/12/09 03:33:44;;;;;;;52.17;28.30;;;;;;;;;;5077286;28;20282;-67
2021/12/09 03:36:10;;;;;;;57.43;28.03;;;;;;;;;;5079191;28;20347;-67
2021/12/09 03:38:36;;;;;;;51.70;26.57;;;;;;;;;;5079281;28;20289;-67
2021/12/09 03:41:03;;;;;;;51.53;27.20;;;;;;;;;;5059756;28;20385;-67
2021/12/09 03:43:29;;;;;;;45.53;26.13;;;;;;;;;;5079147;28;20045;-67
2021/12/09 03:45:56;;;;;;;52.90;27.33;;;;;;;;;;5076344;28;20282;-67
2021/12/09 03:48:26;;;;;;;58.47;27.60;;;;;;;;;;5077269;28;20347;-67
2021/12/09 03:50:53;;;;;;;50.30;26.53;;;;;;;;;;5077341;28;20656;-67
2021/12/09 03:53:19;;;;;;;48.70;28.93;;;;;;;;;;5078663;28;20286;-68
2021/12/09 03:55:45;;;;;;;50.97;26.83;;;;;;;;;;5062308;28;20779;-67
2021/12/09 03:58:11;;;;;;;51.53;27.50;;;;;;;;;;5071397;28;20814;-68
2021/12/09 04:00:37;;;;;;;51.50;26.80;;;;;;;;;;5089556;28;20285;-68
2021/12/09 04:03:04;;;;;;;63.17;28.63;;;;;;;;;;5078722;28;20313;-68
2021/12/09 04:05:30;;;;;;;58.00;27.43;;;;;;;;;;5076913;28;20290;-67
2021/12/09 04:07:56;;;;;;;56.10;27.90;;;;;;;;;;5082405;28;20375;-68
2021/12/09 04:10:22;;;;;;;56.17;27.67;;;;;;;;;;5076112;28;20318;-67
2021/12/09 04:12:48;;;;;;;52.13;26.97;;;;;;;;;;5068929;28;20279;-68
2021/12/09 04:15:14;;;;;;;59.07;26.53;;;;;;;;;;5068409;28;20307;-68
2021/12/09 04:17:40;;;;;;;51.30;27.10;;;;;;;;;;5050820;28;20287;-68
2021/12/09 04:20:08;;;;;;;49.33;25.70;;;;;;;;;;5068782;28;20318;-68
2021/12/09 04:22:35;;;;;;;51.73;26.17;;;;;;;;;;5068790;28;20402;-68
2021/12/09 04:25:01;;;;;;;60.00;26.23;;;;;;;;;;5086701;28;20376;-67
2021/12/09 04:27:27;;;;;;;53.00;26.03;;;;;;;;;;5084761;28;20707;-67
2021/12/09 04:29:54;;;;;;;54.03;27.33;;;;;;;;;;5065975;28;20909;-67
2021/12/09 04:32:20;;;;;;;62.67;28.83;;;;;;;;;;5076397;28;20320;-67
2021/12/09 04:34:47;;;;;;;56.13;27.57;;;;;;;;;;5070712;28;20318;-67
2021/12/09 04:37:13;;;;;;;59.23;29.57;;;;;;;;;;5088819;28;20286;-67
2021/12/09 04:39:39;;;;;;;49.40;26.57;;;;;;;;;;5069750;28;20299;-67
2021/12/09 04:42:05;;;;;;;54.30;28.17;;;;;;;;;;5085794;28;20702;-67
2021/12/09 04:44:31;;;;;;;55.40;26.13;;;;;;;;;;5088187;28;20316;-67
2021/12/09 04:47:00;;;;;;;61.17;27.67;;;;;;;;;;5069927;28;20283;-67
2021/12/09 04:49:26;;;;;;;54.67;26.07;;;;;;;;;;5088263;28;20286;-67
2021/12/09 04:51:52;;;;;;;63.20;29.17;;;;;;;;;;5088805;28;20294;-67
2021/12/09 04:54:18;;;;;;;50.93;26.37;;;;;;;;;;5070058;28;20302;-67
2021/12/09 04:56:44;;;;;;;61.53;27.83;;;;;;;;;;5078148;28;20303;-67
2021/12/09 04:59:10;;;;;;;54.40;27.40;;;;;;;;;;5070034;28;20287;-67
2021/12/09 05:01:37;;;;;;;59.57;27.60;;;;;;;;;;5092303;28;20306;-67
2021/12/09 05:04:04;;;;;;;50.67;26.73;;;;;;;;;;5091721;28;20290;-67
2021/12/09 05:06:30;;;;;;;49.77;25.60;;;;;;;;;;5074463;28;20343;-67
2021/12/09 05:08:57;;;;;;;53.00;27.20;;;;;;;;;;5092697;28;20286;-67
2021/12/09 05:13:52;;;;;;;51.47;27.03;;;;;;;;;;5074076;28;20296;-66
2021/12/09 05:16:18;;;;;;;64.23;29.13;;;;;;;;;;5089772;28;20326;-67
2021/12/09 05:18:44;;;;;;;56.47;27.40;;;;;;;;;;5074307;28;20322;-66
2021/12/09 05:21:12;;;;;;;53.50;27.30;;;;;;;;;;5074018;28;20652;-67
2021/12/09 05:23:38;;;;;;;56.50;26.93;;;;;;;;;;5073719;28;20297;-67
2021/12/09 05:26:04;;;;;;;67.60;28.70;;;;;;;;;;5073766;28;20297;-67
2021/12/09 05:28:33;;;;;;;49.30;26.80;;;;;;;;;;5073959;28;20836;-66
2021/12/09 05:33:44;;;;;;;60.13;28.33;;;;;;;;;;5091713;28;20286;-67
2021/12/09 05:36:10;;;;;;;57.17;27.87;;;;;;;;;;5091978;28;20335;-67
2021/12/09 05:38:37;;;;;;;50.73;28.30;;;;;;;;;;5090864;28;20279;-67
2021/12/09 05:41:03;;;;;;;54.03;28.10;;;;;;;;;;5071728;28;20344;-67
2021/12/09 05:43:29;;;;;;;61.00;28.33;;;;;;;;;;5091500;28;20302;-67
2021/12/09 05:45:55;;;;;;;56.37;27.90;;;;;;;;;;5073535;28;20296;-67
2021/12/09 05:48:21;;;;;;;56.33;26.90;;;;;;;;;;5084978;28;20309;-67
2021/12/09 05:50:47;;;;;;;53.37;27.67;;;;;;;;;;5090609;28;20659;-67
2021/12/09 05:53:13;;;;;;;64.50;29.60;;;;;;;;;;5091516;28;20047;-67
2021/12/09 05:55:43;;;;;;;58.73;30.60;;;;;;;;;;5072732;28;20294;-67
2021/12/09 05:58:10;;;;;;;55.90;28.57;;;;;;;;;;5073303;28;20321;-67
2021/12/09 06:00:36;;;;;;;58.57;29.93;;;;;;;;;;5091642;28;20282;-67
2021/12/09 06:03:02;;;;;;;56.47;28.07;;;;;;;;;;5072524;28;20868;-67
2021/12/09 06:05:28;;;;;;;53.67;29.60;;;;;;;;;;5091121;28;20040;-67
2021/12/09 06:07:55;;;;;;;60.13;31.27;;;;;;;;;;5091485;28;20284;-67
2021/12/09 06:10:21;;;;;;;60.17;29.27;;;;;;;;;;5091002;28;20524;-67
2021/12/09 06:12:47;;;;;;;69.03;30.00;;;;;;;;;;5089418;28;20918;-67
2021/12/09 06:15:13;;;;;;;62.53;29.43;;;;;;;;;;5091227;28;20390;-67
2021/12/09 06:17:39;;;;;;;56.40;27.57;;;;;;;;;;5090115;28;20298;-67
2021/12/09 06:20:05;;;;;;;55.90;27.10;;;;;;;;;;5073208;28;20293;-67
2021/12/09 06:22:31;;;;;;;61.37;28.83;;;;;;;;;;5090913;28;20309;-67
2021/12/09 06:24:57;;;;;;;51.20;26.73;;;;;;;;;;5069847;28;21094;-68
2021/12/09 06:27:23;;;;;;;51.73;27.23;;;;;;;;;;5070993;28;20290;-67
2021/12/09 06:29:49;;;;;;;52.23;27.77;;;;;;;;;;5084864;28;20040;-67
2021/12/09 06:32:15;;;;;;;54.67;26.13;;;;;;;;;;5061657;28;20294;-67
2021/12/09 06:34:41;;;;;;;53.93;26.50;;;;;;;;;;5052805;28;20283;-67
2021/12/09 06:37:07;;;;;;;55.00;25.03;;;;;;;;;;5089127;28;20281;-67
2021/12/09 06:39:33;;;;;;;49.07;26.10;;;;;;;;;;5091181;28;20482;-67
2021/12/09 06:42:00;;;;;;;58.13;27.60;;;;;;;;;;5090979;28;20090;-67
2021/12/09 06:44:26;;;;;;;52.37;27.10;;;;;;;;;;5081991;28;20297;-67
2021/12/09 06:46:55;;;;;;;57.30;27.27;;;;;;;;;;5052605;28;20943;-67
2021/12/09 06:49:21;;;;;;;60.37;26.97;;;;;;;;;;5059269;28;20278;-67
2021/12/09 06:51:47;;;;;;;59.27;29.53;;;;;;;;;;5072046;28;20792;-67
2021/12/09 06:54:13;;;;;;;58.43;29.17;;;;;;;;;;5066847;28;20286;-67
2021/12/09 06:56:39;;;;;;;52.57;26.90;;;;;;;;;;5052358;28;20287;-67
2021/12/09 06:59:05;;;;;;;55.33;27.57;;;;;;;;;;5052665;28;20449;-67
2021/12/09 07:01:31;;;;;;;62.27;28.47;;;;;;;;;;5070067;28;20076;-67
2021/12/09 07:03:57;;;;;;;59.60;28.03;;;;;;;;;;5070524;28;20291;-67
2021/12/09 07:06:23;;;;;;;48.17;25.37;;;;;;;;;;5085191;28;20313;-67
2021/12/09 07:08:52;;;;;;;56.70;26.57;;;;;;;;;;5089565;28;20372;-67
2021/12/09 07:11:20;;;;;;;54.73;26.30;;;;;;;;;;5079787;28;20336;-67
2021/12/09 07:13:46;;;;;;;55.67;25.40;;;;;;;;;;5069863;28;20807;-67
2021/12/09 07:16:12;;;;;;;53.77;25.03;;;;;;;;;;5069713;28;20299;-67
2021/12/09 07:18:38;;;;;;;48.17;25.03;;;;;;;;;;5069481;28;20283;-67
2021/12/09 07:21:06;;;;;;;52.47;25.83;;;;;;;;;;5069833;28;20283;-67
2021/12/09 07:23:32;;;;;;;59.07;26.87;;;;;;;;;;5071676;28;20313;-67
2021/12/09 07:25:59;;;;;;;52.33;24.70;;;;;;;;;;5071355;28;20301;-67
2021/12/09 07:28:25;;;;;;;51.53;26.03;;;;;;;;;;5088444;28;20305;-67
2021/12/09 07:30:51;;;;;;;51.87;24.60;;;;;;;;;;5078648;28;20775;-68
2021/12/09 07:33:17;;;;;;;45.97;24.27;;;;;;;;;;5090206;28;20282;-67
2021/12/09 07:35:43;;;;;;;49.63;24.73;;;;;;;;;;5074920;28;20283;-67
2021/12/09 07:38:09;;;;;;;47.10;24.10;;;;;;;;;;5069576;28;20788;-67
2021/12/09 07:40:36;;;;;;;52.57;27.77;;;;;;;;;;5069767;28;20638;-67
2021/12/09 07:43:03;;;;;;;55.73;27.90;;;;;;;;;;5069365;28;20900;-67
2021/12/09 07:45:29;;;;;;;48.00;25.30;;;;;;;;;;5086231;28;20375;-67
2021/12/09 07:47:55;;;;;;;46.10;24.63;;;;;;;;;;5084801;28;20282;-67
2021/12/09 07:50:23;;;;;;;44.93;25.07;;;;;;;;;;5086992;28;20302;-67
2021/12/09 07:52:51;;;;;;;50.50;24.83;;;;;;;;;;5082661;28;20348;-67
2021/12/09 07:55:18;;;;;;;54.87;24.50;;;;;;;;;;5073725;28;20290;-68
2021/12/09 07:57:45;;;;;;;50.77;23.80;;;;;;;;;;5070327;28;20701;-67
2021/12/09 08:00:28;;;;;;;58.47;23.83;;;;;;;;;;5089094;28;20331;-67
2021/12/09 08:02:54;;;;;;;51.67;23.25;;;;;;;;;;5089281;28;20341;-68
2021/12/09 08:05:21;;;;;;;46.90;22.20;;;;;;;;;;5071075;28;20043;-67
2021/12/09 08:07:47;;;;;;;45.57;22.40;;;;;;;;;;5086620;28;20286;-67
2021/12/09 08:10:16;;;;;;;54.80;24.43;;;;;;;;;;5072932;28;20290;-67
2021/12/09 08:12:42;;;;;;;50.40;23.63;;;;;;;;;;5088333;28;20278;-67
2021/12/09 08:15:09;;;;;;;51.23;24.93;;;;;;;;;;5045626;28;20287;-67
2021/12/09 08:20:08;;;;;;;49.30;22.53;;;;;;;;;;5082633;28;20806;-67
2021/12/09 08:22:34;;;;;;;46.53;22.90;;;;;;;;;;5039286;28;20734;-67
2021/12/09 08:25:00;;;;;;;49.73;24.33;;;;;;;;;;5085651;28;20310;-68
2021/12/09 08:27:27;;;;;;;53.30;23.83;;;;;;;;;;5085123;28;20376;-67
2021/12/09 08:29:53;;;;;;;52.90;23.93;;;;;;;;;;5058745;28;20998;-67
2021/12/09 08:32:19;;;;;;;57.43;26.70;;;;;;;;;;5070853;28;20792;-67
2021/12/09 08:34:45;;;;;;;51.20;24.57;;;;;;;;;;5086796;28;20305;-67
2021/12/09 08:37:11;;;;;;;53.10;25.10;;;;;;;;;;5071098;28;20091;-68
2021/12/09 08:39:38;;;;;;;50.63;23.80;;;;;;;;;;5076229;28;20055;-69
2021/12/09 08:42:04;;;;;;;51.60;24.10;;;;;;;;;;5074596;28;20303;-68
2021/12/09 08:44:30;;;;;;;55.60;24.50;;;;;;;;;;5068090;28;20328;-67
2021/12/09 08:46:56;;;;;;;58.37;25.60;;;;;;;;;;5085652;28;20281;-68
2021/12/09 08:49:22;;;;;;;54.07;24.50;;;;;;;;;;5069707;28;20298;-68
2021/12/09 08:51:48;;;;;;;49.67;22.77;;;;;;;;;;5078673;28;20301;-67
2021/12/09 08:54:15;;;;;;;53.37;25.27;;;;;;;;;;5067756;28;20302;-68
2021/12/09 08:56:43;;;;;;;50.93;23.63;;;;;;;;;;5070647;28;20298;-67
2021/12/09 08:59:09;;;;;;;46.23;22.03;;;;;;;;;;5052002;28;20389;-67
2021/12/09 09:01:36;;;;;;;44.73;22.80;;;;;;;;;;5061548;28;20302;-67
2021/12/09 09:04:02;;;;;;;40.13;22.17;;;;;;;;;;5063851;28;20321;-68
2021/12/09 09:06:31;;;;;;;42.13;22.57;;;;;;;;;;5055613;28;20385;-67
2021/12/09 09:08:58;;;;;;;48.03;22.23;;;;;;;;;;5070436;28;20902;-68
2021/12/09 09:11:24;;;;;;;47.43;21.47;;;;;;;;;;5081384;28;20382;-68
2021/12/09 09:13:50;;;;;;;41.57;21.33;;;;;;;;;;5087282;28;20305;-68
2021/12/09 09:16:16;;;;;;;52.67;21.83;;;;;;;;;;5081112;28;20278;-68
2021/12/09 09:18:43;;;;;;;41.87;19.87;;;;;;;;;;5067797;28;20290;-67
2021/12/09 09:21:09;;;;;;;42.10;20.90;;;;;;;;;;5050177;28;20764;-68
2021/12/09 09:23:35;;;;;;;44.97;19.77;;;;;;;;;;5071018;28;20309;-67
2021/12/09 09:26:01;;;;;;;34.77;17.77;;;;;;;;;;5069362;28;20358;-68
2021/12/09 09:28:28;;;;;;;45.07;21.27;;;;;;;;;;5071406;28;20361;-68
2021/12/09 09:30:56;;;;;;;38.57;18.87;;;;;;;;;;5074767;28;20424;-68
2021/12/09 09:33:25;;;;;;;36.97;19.80;;;;;;;;;;5068093;28;20375;-68
2021/12/09 09:35:51;;;;;;;39.73;18.57;;;;;;;;;;5050057;28;20294;-68
2021/12/09 09:38:18;;;;;;;33.03;18.00;;;;;;;;;;5067651;28;20287;-68
2021/12/09 09:40:51;;;;;;;35.33;17.87;;;;;;;;;;5079201;28;20341;-68
2021/12/09 09:46:05;;;;;;;37.27;17.40;;;;;;;;;;5072256;28;20044;-68
2021/12/09 09:48:31;;;;;;;37.10;18.30;;;;;;;;;;5088916;28;20313;-68
2021/12/09 09:50:58;;;;;;;37.73;17.33;;;;;;;;;;5053101;28;21021;-69
2021/12/09 09:53:24;;;;;;;34.43;19.00;;;;;;;;;;5072580;28;20334;-68
2021/12/09 09:55:50;;;;;;;49.20;22.73;;;;;;;;;;5062032;28;20353;-69
2021/12/09 09:58:17;;;;;;;41.17;22.80;;;;;;;;;;5069286;28;20779;-69
2021/12/09 10:00:43;;;;;;;36.13;20.03;;;;;;;;;;5078340;28;20290;-69
2021/12/09 10:03:16;;;;;;;33.17;17.53;;;;;;;;;;5088876;28;20310;-69
2021/12/09 10:05:44;;;;;;;30.00;16.33;;;;;;;;;;5073220;28;20287;-69
2021/12/09 10:08:13;;;;;;;25.10;14.03;;;;;;;;;;5069892;28;20048;-68
2021/12/09 10:10:40;;;;;;;25.70;11.77;;;;;;;;;;5070471;28;20297;-68
2021/12/09 10:13:07;;;;;;;25.90;10.30;;;;;;;;;;5082988;28;20036;-68
2021/12/09 10:15:45;;;;;;;21.87;9.03;;;;;;;;;;5054765;28;20286;-68
2021/12/09 10:18:12;;;;;;;22.87;9.50;;;;;;;;;;5089817;28;20056;-68
2021/12/09 10:20:44;;;;;;;21.33;9.63;;;;;;;;;;5078398;28;20340;-69
2021/12/09 10:23:27;;;;;;;22.23;9.10;;;;;;;;;;5088583;28;20063;-68
2021/12/09 10:26:12;;;;;;;17.35;9.82;;;;;;;;;;5061404;28;20094;-69
2021/12/09 10:28:40;;;;;;;26.57;10.37;;;;;;;;;;5069255;28;20498;-68
2021/12/09 10:31:15;;;;;;;23.07;10.50;;;;;;;;;;5084647;28;20044;-69
2021/12/09 10:34:21;;;;;;;24.20;10.73;;;;;;;;;;5071662;28;20040;-69
2021/12/09 10:36:55;;;;;;;22.13;10.97;;;;;;;;;;5070154;28;20044;-69
2021/12/09 10:39:41;;;;;;;23.17;10.67;;;;;;;;;;5070142;28;20048;-69
2021/12/09 10:42:13;;;;;;;19.80;10.83;;;;;;;;;;5070649;28;20044;-69
2021/12/09 10:44:42;;;;;;;20.53;10.50;;;;;;;;;;5076746;28;20125;-69
2021/12/09 10:47:22;;;;;;;26.97;12.10;;;;;;;;;;5078444;28;20048;-69
2021/12/09 10:49:53;;;;;;;17.20;11.37;;;;;;;;;;5057163;28;20158;-70
2021/12/09 10:52:37;;;;;;;25.93;12.07;;;;;;;;;;5071219;28;20052;-69
2021/12/09 10:55:11;;;;;;;21.53;12.30;;;;;;;;;;5081910;28;20067;-69
2021/12/09 10:57:37;;;;;;;27.20;12.53;;;;;;;;;;5069864;28;20051;-69
2021/12/09 11:00:18;;;;;;;22.43;11.37;;;;;;;;;;5080320;28;20044;-69
2021/12/09 11:02:58;;;;;;;23.57;11.40;;;;;;;;;;5069911;28;20084;-70
2021/12/09 11:05:24;;;;;;;19.97;11.17;;;;;;;;;;5075358;28;21212;-69
2021/12/09 11:07:50;;;;;;;21.47;11.80;;;;;;;;;;5062030;28;20048;-69
2021/12/09 11:10:18;;;;;;;20.60;12.43;;;;;;;;;;5051304;28;20052;-69
2021/12/09 11:12:48;;;;;;;18.73;11.20;;;;;;;;;;5067718;28;20055;-69
2021/12/09 11:15:15;;;;;;;27.57;12.63;;;;;;;;;;5055918;28;20534;-69
2021/12/09 11:17:45;;;;;;;23.60;12.10;;;;;;;;;;5051852;28;20060;-69
2021/12/09 11:20:11;;;;;;;23.27;11.30;;;;;;;;;;5082579;28;20055;-69
2021/12/09 11:22:38;;;;;;;21.50;12.40;;;;;;;;;;5066658;28;20045;-69
2021/12/09 11:25:07;;;;;;;23.73;12.73;;;;;;;;;;5051224;28;20115;-70
2021/12/09 11:27:34;;;;;;;28.77;14.33;;;;;;;;;;5053406;28;20067;-70
2021/12/09 11:30:13;;;;;;;29.40;12.83;;;;;;;;;;5067828;28;20078;-69
2021/12/09 11:32:56;;;;;;;25.67;13.40;;;;;;;;;;5060956;28;20052;-70
2021/12/09 11:35:27;;;;;;;26.17;13.17;;;;;;;;;;5068567;28;20057;-69
2021/12/09 11:40:55;;;;;;;29.47;12.57;;;;;;;;;;5037489;28;20106;-70
2021/12/09 11:43:22;;;;;;;27.73;13.13;;;;;;;;;;5068493;28;20058;-70
2021/12/09 11:45:50;;;;;;;23.37;13.43;;;;;;;;;;5071065;28;20047;-70
2021/12/09 11:48:16;;;;;;;32.00;12.70;;;;;;;;;;5069487;28;20387;-69
2021/12/09 11:50:50;;;;;;;25.27;14.27;;;;;;;;;;5056434;28;20095;-70
2021/12/09 11:53:20;;;;;;;26.43;13.60;;;;;;;;;;5050925;28;20410;-69
2021/12/09 11:55:57;;;;;;;27.40;13.27;;;;;;;;;;5060498;28;20425;-69
2021/12/09 11:58:28;;;;;;;28.67;13.13;;;;;;;;;;5062941;28;20062;-70
2021/12/09 12:07:07;;;;;;;27.80;14.23;;;;;;;;;;5090525;28;20126;-70
2021/12/09 12:15:02;;;;;;;30.53;13.97;;;;;;;;;;5087646;28;20123;-69
2021/12/09 12:17:39;;;;;;;27.83;14.30;;;;;;;;;;5050204;28;20044;-69
2021/12/09 12:20:34;;;;;;;27.67;12.20;;;;;;;;;;5050346;28;20302;-70
2021/12/09 12:28:20;;;;;;;28.93;14.13;;;;;;;;;;5069863;28;20048;-70
2021/12/09 12:31:24;;;;;;;29.73;15.07;;;;;;;;;;5070129;28;20063;-69
2021/12/09 12:39:35;;;;;;;26.37;16.33;;;;;;;;;;5068433;28;20052;-70
2021/12/09 12:42:08;;;;;;;36.40;15.37;;;;;;;;;;5069388;28;20126;-69
2021/12/09 12:44:35;;;;;;;30.10;14.02;;;;;;;;;;5088557;28;20056;-70
2021/12/09 12:47:13;;;;;;;26.47;15.43;;;;;;;;;;5069024;28;20048;-70
2021/12/09 12:49:46;;;;;;;33.57;17.07;;;;;;;;;;5068999;28;20055;-70
2021/12/09 12:52:22;;;;;;;33.57;15.37;;;;;;;;;;5086420;28;20118;-70
2021/12/09 12:54:53;;;;;;;32.80;16.33;;;;;;;;;;5087140;28;20052;-70
2021/12/09 12:57:31;;;;;;;25.27;15.23;;;;;;;;;;5087036;28;20078;-70
2021/12/09 13:00:18;;;;;;;34.90;16.83;;;;;;;;;;5069339;28;20085;-70
2021/12/09 13:05:32;;;;;;;;;;;;;;;;;;5069938;28;20378;-70
2021/12/09 13:11:04;;;;;;;33.73;15.53;;;;;;;;;;5069868;28;20048;-70
2021/12/09 13:13:26;;;;;;;29.50;15.60;;;;;;;;;;5069630;28;20170;-70
2021/12/09 13:16:20;;;;;;;36.17;16.07;;;;;;;;;;5069390;28;20123;-70
2021/12/09 13:21:41;;;;;;;35.53;15.50;;;;;;;;;;5068179;28;20047;-70
2021/12/09 13:27:31;;;;;;;33.93;14.50;;;;;;;;;;5053964;28;20417;-70
2021/12/09 13:35:22;;;;;;;23.03;14.00;;;;;;;;;;5053244;28;20045;-69
2021/12/09 13:48:41;;;;;;;31.77;15.33;;;;;;;;;;5030727;28;20048;-70
2021/12/09 13:51:18;;;;;;;26.63;13.03;;;;;;;;;;5052682;28;20084;-70
2021/12/09 13:54:18;;;;;;;28.43;14.27;;;;;;;;;;5071114;28;20090;-70
2021/12/09 13:56:44;;;;;;;27.60;14.43;;;;;;;;;;5070884;28;20080;-70
2021/12/09 13:59:21;;;;;;;23.60;13.77;;;;;;;;;;5070848;28;20048;-70
2021/12/09 14:01:47;;;;;;;26.00;13.80;;;;;;;;;;5080860;28;20466;-70
2021/12/09 14:04:18;;;;;;;22.63;13.93;;;;;;;;;;5091293;28;20036;-70
2021/12/09 14:06:52;;;;;;;25.70;14.00;;;;;;;;;;5091286;28;20040;-70
2021/12/09 14:09:18;;;;;;;22.70;14.40;;;;;;;;;;5091154;28;20054;-70
2021/12/09 14:11:48;;;;;;;34.23;15.33;;;;;;;;;;5072749;28;20139;-70
2021/12/09 14:14:19;;;;;;;25.90;13.97;;;;;;;;;;5072719;28;20117;-70
2021/12/09 14:21:55;;;;;;;23.03;13.87;;;;;;;;;;5070614;28;20136;-71
2021/12/09 14:24:24;;;;;;;25.17;13.70;;;;;;;;;;5072176;28;20095;-70
2021/12/09 14:26:55;;;;;;;29.83;14.67;;;;;;;;;;5072169;28;20148;-70
2021/12/09 14:29:21;;;;;;;27.30;15.07;;;;;;;;;;5072334;28;20568;-70
2021/12/09 14:31:49;;;;;;;28.20;14.83;;;;;;;;;;5089609;28;20036;-70
2021/12/09 14:34:16;;;;;;;25.67;15.97;;;;;;;;;;5089646;28;20074;-70
2021/12/09 14:36:45;;;;;;;24.73;15.10;;;;;;;;;;5090286;28;20094;-70
2021/12/09 14:39:12;;;;;;;30.87;15.67;;;;;;;;;;5090737;28;20127;-70
2021/12/09 14:41:38;;;;;;;24.80;14.33;;;;;;;;;;5072373;28;20131;-70
2021/12/09 14:44:08;;;;;;;35.87;16.57;;;;;;;;;;5071057;28;20051;-70
2021/12/09 14:46:37;;;;;;;35.83;15.87;;;;;;;;;;5052419;28;20464;-70
2021/12/09 14:49:14;;;;;;;32.60;15.73;;;;;;;;;;5087678;28;20147;-70
2021/12/09 14:51:42;;;;;;;28.60;16.80;;;;;;;;;;5071962;28;20044;-70
2021/12/09 14:54:09;;;;;;;34.03;17.23;;;;;;;;;;5089913;28;20048;-70
2021/12/09 14:56:45;;;;;;;27.40;17.17;;;;;;;;;;5071854;28;20051;-70
2021/12/09 14:59:20;;;;;;;35.57;19.37;;;;;;;;;;5089765;28;20075;-70
2021/12/09 15:01:48;;;;;;;33.17;17.67;;;;;;;;;;5089781;28;20044;-70
2021/12/09 15:04:18;;;;;;;30.47;17.10;;;;;;;;;;5071848;28;20040;-70
2021/12/09 15:06:53;;;;;;;29.13;17.47;;;;;;;;;;5071547;28;20105;-70
2021/12/09 15:09:20;;;;;;;26.67;17.20;;;;;;;;;;5070566;28;20194;-70
2021/12/09 15:11:48;;;;;;;35.20;18.13;;;;;;;;;;5071617;28;20044;-70
2021/12/09 15:14:16;;;;;;;36.07;16.47;;;;;;;;;;5070598;28;20044;-70
2021/12/09 15:16:42;;;;;;;31.97;17.33;;;;;;;;;;5071228;28;20048;-70
2021/12/09 15:19:16;;;;;;;33.37;18.10;;;;;;;;;;5070881;28;20080;-70
2021/12/09 15:21:42;;;;;;;28.23;16.43;;;;;;;;;;5065541;28;20081;-70
2021/12/09 15:24:11;;;;;;;27.77;16.87;;;;;;;;;;5051478;28;20051;-71
2021/12/09 15:26:39;;;;;;;32.63;18.77;;;;;;;;;;5051808;28;20060;-70
2021/12/09 15:29:14;;;;;;;31.90;19.57;;;;;;;;;;5051013;28;20555;-69
2021/12/09 15:31:42;;;;;;;33.70;19.43;;;;;;;;;;5069219;28;20045;-69
2021/12/09 15:34:10;;;;;;;35.23;20.60;;;;;;;;;;5051231;28;20045;-70